createdAt,value
2022-10-15T04:58:01.071Z,100.00
2022-10-15T05:01:07.657Z,100.00
2022-10-15T05:04:12.329Z,100.00
2022-10-15T05:07:15.532Z,100.00
2022-10-15T05:10:18.431Z,100.00
2022-10-15T05:13:21.780Z,100.00
2022-10-15T05:16:27.513Z,100.00
2022-10-15T05:19:30.414Z,100.00
2022-10-15T05:22:33.107Z,100.00
2022-10-15T05:25:37.034Z,100.00
2022-10-15T05:28:39.873Z,100.00
2022-10-15T05:31:42.726Z,100.00
2022-10-15T05:34:46.823Z,100.00
2022-10-15T05:37:49.891Z,100.00
2022-10-15T05:40:53.161Z,100.00
2022-10-15T05:43:58.715Z,100.00
2022-10-15T05:47:01.291Z,100.00
2022-10-15T05:50:08.153Z,100.00
2022-10-15T05:53:15.581Z,100.00
2022-10-15T05:56:19.245Z,100.00
2022-10-15T05:59:21.795Z,100.00
2022-10-15T06:02:24.829Z,100.00
2022-10-15T06:05:27.944Z,100.00
2022-10-15T06:08:31.547Z,100.00
2022-10-15T06:11:36.456Z,100.00
2022-10-15T06:14:38.992Z,100.00
2022-10-15T06:17:42.453Z,100.00
2022-10-15T06:20:51.451Z,100.00
2022-10-15T06:23:54.208Z,100.00
2022-10-15T06:26:59.372Z,100.00
2022-10-15T06:30:02.541Z,100.00
2022-10-15T06:33:05.173Z,100.00
2022-10-15T06:36:10.301Z,100.00
2022-10-15T06:39:12.725Z,100.00
2022-10-15T06:42:17.164Z,100.00
2022-10-15T06:45:23.061Z,100.00
2022-10-15T06:48:26.224Z,100.00
2022-10-15T06:51:28.690Z,100.00
2022-10-15T06:54:31.491Z,100.00
2022-10-15T06:57:34.101Z,100.00
2022-10-15T07:00:36.958Z,100.00
2022-10-15T07:03:41.811Z,100.00
2022-10-15T07:06:44.617Z,100.00
2022-10-15T07:09:47.608Z,100.00
2022-10-15T07:12:50.434Z,100.00
2022-10-15T07:15:53.929Z,100.00
2022-10-15T07:18:56.679Z,100.00
2022-10-15T07:21:59.155Z,100.00
2022-10-15T07:25:02.164Z,100.00
2022-10-15T07:28:05.463Z,100.00
2022-10-15T07:31:08.263Z,100.00
2022-10-15T07:34:10.756Z,100.00
2022-10-15T07:37:13.487Z,100.00
2022-10-15T07:40:17.851Z,99.09
2022-10-15T07:43:20.635Z,99.37
2022-10-15T07:46:23.199Z,97.59
2022-10-15T07:49:29.479Z,95.33
2022-10-15T07:52:31.957Z,95.96
2022-10-15T07:55:35.328Z,94.92
2022-10-15T07:58:38.678Z,93.31
